TCMO2: Little River Nr Tecumseh, OK

Data processed at Sat Dec 15 2018 23:32


All information presented herein is the property of the government of the United States of America and may be revised or deleted at any time without prior notice.
Dissemination of this information without the expressed written consent of the Public Affairs Office, Tulsa District U.S. Army Corps of Engineers is strictly prohibited.
These data are gathered electronically and, as presented, have not undergone any form of quality control. These data are not guaranteed to be valid or correct.
Go to home page.
Go to station list.
Go to home page.

Upstream stations:

Downstream station:
Previous Day
Next Day
Current Day
    
SHEF ID:       TCMO2     Little River near Tecumseh, OK
STATION TYPE:  

                STAGE  RIV-FLOW  BAT-LOAD
                   ft       cfs      volt
              Ccp-Rev   Ccp-Rev   Ccp-Rev
(US/Central)
12/15 00:00      5.68       126     12.49
12/15 01:00      5.67       125     12.41
12/15 02:00      5.65       122     12.41
12/15 03:00      5.63       119     12.41
12/15 04:00      5.59       113     12.41
12/15 05:00      5.56       109     12.41
12/15 06:00      5.54       106     12.41
12/15 07:00      5.51       102     12.41
12/15 08:00      5.47        96     12.41
12/15 09:00      5.45        94     12.49
12/15 10:00      5.42        90     12.65
12/15 11:00      5.40        88     12.97
12/15 12:00      5.37        84     13.13
12/15 13:00      5.34        81     13.29
12/15 14:00      5.32        78     13.37
12/15 15:00      5.29        75     13.21
12/15 16:00      5.26        72     13.05
12/15 17:00      5.23        69     12.97
12/15 18:00      5.20        66     12.81
12/15 19:00      5.18        64     12.73
12/15 20:00      5.16        62     12.73
12/15 21:00      5.14        60     12.65
12/15 22:00      5.12        58     12.65
12/15 23:00      ----      ----      ----